Time;durP1;ratioP1;P1;durP2;ratioP2;P2;SDS_P1;SDS_P2;PMS_P1;PMS_P2;Temp;Humidity;BMP_temperature;BMP_pressure;BME280_temperature;BME280_humidity;BME280_pressure;Samples;Min_cycle;Max_cycle;Signal;HPM_P1;HPM_P2
2021/01/31 00:01:32;;;;;;;7.57;6.90;;;5.10;99.90;;;;;;5007436;28;20470;-88
2021/01/31 00:03:59;;;;;;;10.70;7.93;;;5.10;99.90;;;;;;5008751;28;20485;-88
2021/01/31 00:06:25;;;;;;;25.43;20.33;;;5.10;99.90;;;;;;5009241;28;20431;-89
2021/01/31 00:08:52;;;;;;;11.87;10.67;;;5.10;99.90;;;;;;5005222;28;20478;-89
2021/01/31 00:11:19;;;;;;;9.57;8.67;;;5.10;99.90;;;;;;4980493;28;20531;-89
2021/01/31 00:13:47;;;;;;;9.17;8.30;;;5.00;99.90;;;;;;4980942;28;20475;-88
2021/01/31 00:16:14;;;;;;;10.90;9.90;;;5.00;99.90;;;;;;4988350;28;20458;-89
2021/01/31 00:18:41;;;;;;;10.10;9.20;;;5.00;99.90;;;;;;4996730;28;20454;-88
2021/01/31 00:21:08;;;;;;;10.00;8.90;;;5.00;99.90;;;;;;4998749;28;20479;-89
2021/01/31 00:23:35;;;;;;;8.87;8.07;;;5.10;99.90;;;;;;5011048;28;20474;-89
2021/01/31 00:26:01;;;;;;;10.80;9.73;;;5.00;99.90;;;;;;5002709;28;20447;-89
2021/01/31 00:28:27;;;;;;;10.20;9.30;;;5.00;99.90;;;;;;5002599;28;20936;-89
2021/01/31 00:30:54;;;;;;;10.37;9.43;;;5.00;99.90;;;;;;4999194;28;20483;-89
2021/01/31 00:33:22;;;;;;;9.53;8.63;;;5.00;99.90;;;;;;4998383;28;20475;-88
2021/01/31 00:35:49;;;;;;;10.17;9.00;;;4.90;99.90;;;;;;4999169;28;20463;-89
2021/01/31 00:38:20;;;;;;;10.70;9.70;;;5.00;99.90;;;;;;5000270;28;20458;-89
2021/01/31 00:40:46;;;;;;;10.40;9.40;;;5.00;99.90;;;;;;4999007;28;20497;-88
2021/01/31 00:43:14;;;;;;;11.30;10.10;;;4.90;99.90;;;;;;5000546;28;20473;-89
2021/01/31 00:45:41;;;;;;;12.10;11.00;;;4.90;99.90;;;;;;5002086;28;20447;-88
2021/01/31 00:48:07;;;;;;;11.70;9.70;;;4.80;99.90;;;;;;5016866;28;20434;-88
2021/01/31 00:50:36;;;;;;;10.20;9.03;;;4.90;99.90;;;;;;5020372;28;20442;-88
2021/01/31 00:53:03;;;;;;;9.90;8.93;;;4.80;99.90;;;;;;5049641;23;20497;-89
2021/01/31 00:55:30;;;;;;;11.40;9.77;;;4.80;99.90;;;;;;5016492;28;20516;-88
2021/01/31 00:58:01;;;;;;;12.50;10.87;;;4.80;99.90;;;;;;5019064;28;20450;-89
2021/01/31 01:00:31;;;;;;;10.53;9.23;;;4.80;99.90;;;;;;5018207;28;20538;-88
2021/01/31 01:02:59;;;;;;;11.73;10.53;;;4.70;99.90;;;;;;5017493;28;20504;-89
2021/01/31 01:05:30;;;;;;;12.60;11.37;;;4.70;99.90;;;;;;5018345;28;20437;-89
2021/01/31 01:08:00;;;;;;;11.90;10.77;;;4.70;99.90;;;;;;5017682;28;20485;-89
2021/01/31 01:10:32;;;;;;;12.03;10.83;;;4.70;99.90;;;;;;5017618;28;20461;-88
2021/01/31 01:13:03;;;;;;;13.07;10.90;;;4.70;99.90;;;;;;5017890;28;21054;-89
2021/01/31 01:15:31;;;;;;;12.03;10.73;;;4.70;99.90;;;;;;5018196;28;20879;-89
2021/01/31 01:17:59;;;;;;;12.07;10.83;;;4.70;99.90;;;;;;5025528;28;20434;-89
2021/01/31 01:20:26;;;;;;;12.70;10.60;;;4.60;99.90;;;;;;5039869;28;20435;-87
2021/01/31 01:22:55;;;;;;;12.73;11.47;;;4.60;99.90;;;;;;5032793;28;20482;-87
2021/01/31 01:25:23;;;;;;;13.27;11.97;;;4.60;99.90;;;;;;5034098;28;20446;-88
2021/01/31 01:27:53;;;;;;;12.83;11.53;;;4.50;99.90;;;;;;5019041;28;20454;-88
2021/01/31 01:30:23;;;;;;;13.30;11.67;;;4.50;99.90;;;;;;5018044;28;20446;-88
2021/01/31 01:32:50;;;;;;;14.30;12.87;;;4.50;99.90;;;;;;5015779;28;20481;-88
2021/01/31 01:35:23;;;;;;;13.47;12.07;;;4.60;99.90;;;;;;5034831;28;20465;-88
2021/01/31 01:37:54;;;;;;;12.97;11.67;;;4.60;99.90;;;;;;5038107;28;20449;-90
2021/01/31 01:40:26;;;;;;;13.97;11.93;;;4.60;99.90;;;;;;5039624;28;20446;-88
2021/01/31 01:42:54;;;;;;;13.23;11.90;;;4.60;99.90;;;;;;5030357;28;20486;-88
2021/01/31 01:45:22;;;;;;;14.20;11.60;;;4.50;99.90;;;;;;5019189;28;20481;-88
2021/01/31 01:47:55;;;;;;;13.07;11.67;;;4.40;99.90;;;;;;5020352;28;20814;-88
2021/01/31 01:50:28;;;;;;;15.60;13.70;;;4.50;99.90;;;;;;5035855;28;20514;-88
2021/01/31 01:53:00;;;;;;;13.37;11.97;;;4.50;99.90;;;;;;5034131;28;20479;-88
2021/01/31 01:55:31;;;;;;;12.90;11.40;;;4.50;99.90;;;;;;5034735;28;20451;-88
2021/01/31 01:58:04;;;;;;;11.40;9.83;;;4.50;99.90;;;;;;5022668;28;20465;-88
2021/01/31 02:00:34;;;;;;;11.43;10.17;;;4.40;99.90;;;;;;5029289;28;20889;-88
2021/01/31 02:03:08;;;;;;;13.23;10.70;;;4.50;99.90;;;;;;5030787;28;20484;-88
2021/01/31 02:05:37;;;;;;;11.50;10.40;;;4.50;99.90;;;;;;5017916;28;20496;-88
2021/01/31 02:08:09;;;;;;;12.03;10.93;;;4.50;99.90;;;;;;5018271;28;20874;-88
2021/01/31 02:10:39;;;;;;;11.40;10.27;;;4.50;99.90;;;;;;5017865;28;20508;-88
2021/01/31 02:13:10;;;;;;;12.43;11.13;;;4.50;99.90;;;;;;5016742;28;20482;-88
2021/01/31 02:15:36;;;;;;;11.43;10.23;;;4.50;99.90;;;;;;5017284;28;20915;-88
2021/01/31 02:18:14;;;;;;;12.27;11.00;;;4.50;99.90;;;;;;5015991;28;20434;-88
2021/01/31 02:21:27;;;;;;;12.30;10.40;;;4.40;99.90;;;;;;5017442;28;20479;-88
2021/01/31 02:24:31;;;;;;;11.57;10.37;;;4.40;99.90;;;;;;5016205;28;20485;-88
2021/01/31 02:27:30;;;;;;;11.90;10.73;;;4.30;99.90;;;;;;5022669;28;20472;-88
2021/01/31 02:30:28;;;;;;;12.37;11.07;;;4.30;99.90;;;;;;5036796;28;20438;-88
2021/01/31 02:33:33;;;;;;;12.30;10.97;;;4.30;99.90;;;;;;5028901;28;20487;-88
2021/01/31 02:36:05;;;;;;;13.00;11.70;;;4.40;99.90;;;;;;5014017;28;20545;-88
2021/01/31 02:38:38;;;;;;;11.40;10.30;;;4.40;99.90;;;;;;5016302;28;20454;-88
2021/01/31 02:41:09;;;;;;;11.90;10.70;;;4.30;99.90;;;;;;5016668;28;20496;-88
2021/01/31 02:43:40;;;;;;;12.80;11.50;;;4.30;99.90;;;;;;5016528;28;20477;-88
2021/01/31 02:46:12;;;;;;;13.30;11.87;;;4.40;99.90;;;;;;5016351;28;20461;-88
2021/01/31 02:48:49;;;;;;;13.83;12.43;;;4.40;99.90;;;;;;5016797;28;20450;-88
2021/01/31 02:51:25;;;;;;;15.47;12.83;;;4.40;99.90;;;;;;5019860;28;20425;-89
2021/01/31 02:53:57;;;;;;;12.63;11.30;;;4.40;99.90;;;;;;5026335;28;20473;-88
2021/01/31 02:56:32;;;;;;;13.77;12.07;;;4.40;99.90;;;;;;5017217;28;20561;-88
2021/01/31 02:59:05;;;;;;;15.07;13.47;;;4.40;99.90;;;;;;5016732;28;20533;-88
2021/01/31 03:01:36;;;;;;;13.87;12.47;;;4.40;99.90;;;;;;5015418;28;20479;-88
2021/01/31 03:04:09;;;;;;;12.50;11.20;;;4.40;99.90;;;;;;5015856;28;20447;-88
2021/01/31 03:06:46;;;;;;;12.10;10.90;;;4.40;99.90;;;;;;5016285;28;20485;-88
2021/01/31 03:09:17;;;;;;;11.20;10.00;;;4.40;99.90;;;;;;5016974;28;20469;-88
2021/01/31 03:11:49;;;;;;;10.93;9.83;;;4.40;99.90;;;;;;5016128;28;20469;-88
2021/01/31 03:14:20;;;;;;;11.30;10.20;;;4.40;99.90;;;;;;5016068;28;21021;-88
2021/01/31 03:16:54;;;;;;;10.87;9.63;;;4.40;99.90;;;;;;5015964;28;20949;-88
2021/01/31 03:19:26;;;;;;;10.90;9.80;;;4.40;99.90;;;;;;5018842;28;20440;-88
2021/01/31 03:21:57;;;;;;;11.23;10.13;;;4.40;99.90;;;;;;5020539;28;20474;-88
2021/01/31 03:24:30;;;;;;;10.63;9.57;;;4.50;99.90;;;;;;5016961;28;21032;-88
2021/01/31 03:27:01;;;;;;;11.60;10.50;;;4.50;99.90;;;;;;5018570;28;20453;-88
2021/01/31 03:29:27;;;;;;;10.10;9.00;;;4.50;99.90;;;;;;5017517;28;20449;-88
2021/01/31 03:31:57;;;;;;;10.63;9.63;;;4.50;99.90;;;;;;5038490;28;20442;-89
2021/01/31 03:34:29;;;;;;;11.50;10.40;;;4.50;99.90;;;;;;5027693;28;20462;-88
2021/01/31 03:37:01;;;;;;;11.67;10.10;;;4.40;99.90;;;;;;5038561;28;20433;-89
2021/01/31 03:39:29;;;;;;;11.07;9.97;;;4.40;99.90;;;;;;5032384;28;20455;-88
2021/01/31 03:41:55;;;;;;;11.40;10.30;;;4.40;99.90;;;;;;5023972;28;20474;-88
2021/01/31 03:44:22;;;;;;;12.83;11.53;;;4.50;99.90;;;;;;5024255;28;20473;-88
2021/01/31 03:46:53;;;;;;;12.97;11.67;;;4.40;99.90;;;;;;5023990;28;20474;-89
2021/01/31 03:49:26;;;;;;;12.40;11.00;;;4.50;99.90;;;;;;5027572;28;20461;-88
2021/01/31 03:51:53;;;;;;;13.57;11.20;;;4.40;99.90;;;;;;5022857;28;20433;-88
2021/01/31 03:54:21;;;;;;;13.43;12.03;;;4.50;99.90;;;;;;5027607;28;20477;-88
2021/01/31 03:56:51;;;;;;;12.23;11.03;;;4.50;99.90;;;;;;5029542;28;20450;-88
2021/01/31 03:59:23;;;;;;;12.07;10.87;;;4.50;99.90;;;;;;5022891;28;20454;-88
2021/01/31 04:01:55;;;;;;;11.73;10.40;;;4.40;99.90;;;;;;5021285;28;20493;-90
2021/01/31 04:04:52;;;;;;;;;;;;;;;;;;;;;
2021/01/31 04:11:54;;;;;;;;;;;;;;;;;;;;;
2021/01/31 04:21:29;;;;;;;11.63;10.20;;;4.40;99.90;;;;;;4969169;28;20441;-85
2021/01/31 04:24:01;;;;;;;11.47;10.37;;;4.40;99.90;;;;;;5027689;28;20473;-86
2021/01/31 04:26:27;;;;;;;12.13;10.93;;;4.50;99.90;;;;;;5024954;28;20451;-86
2021/01/31 04:28:53;;;;;;;12.67;11.37;;;4.50;99.90;;;;;;5018883;28;20438;-88
2021/01/31 04:31:19;;;;;;;11.67;10.43;;;4.50;99.90;;;;;;5030564;28;20448;-88
2021/01/31 04:33:46;;;;;;;11.30;10.20;;;4.40;99.90;;;;;;5032419;28;20997;-88
2021/01/31 04:36:12;;;;;;;14.20;12.70;;;4.40;99.90;;;;;;5023577;28;20442;-88
2021/01/31 04:38:39;;;;;;;12.93;11.13;;;4.40;99.90;;;;;;5021455;28;20462;-87
2021/01/31 04:41:06;;;;;;;12.10;10.83;;;4.40;99.90;;;;;;5035442;28;20446;-88
2021/01/31 04:43:32;;;;;;;12.33;11.17;;;4.20;99.90;;;;;;5029566;28;21266;-87
2021/01/31 04:45:59;;;;;;;13.93;12.50;;;4.30;99.90;;;;;;5019267;28;20523;-88
2021/01/31 04:48:34;;;;;;;12.23;10.83;;;4.20;99.90;;;;;;5018361;28;20450;-88
2021/01/31 04:51:08;;;;;;;12.77;11.47;;;4.20;99.90;;;;;;5020655;28;20442;-88
2021/01/31 04:53:57;;;;;;;11.67;10.47;;;4.10;99.90;;;;;;5017191;28;20465;-87
2021/01/31 04:56:41;;;;;;;13.30;10.20;;;4.10;99.90;;;;;;5017136;28;20457;-87
2021/01/31 04:59:17;;;;;;;14.03;10.70;;;3.80;99.90;;;;;;5026748;28;20455;-86
2021/01/31 05:01:44;;;;;;;14.07;11.40;;;3.70;99.90;;;;;;5023730;28;20539;-86
2021/01/31 05:04:13;;;;;;;13.20;11.43;;;3.70;99.90;;;;;;5026767;28;20484;-87
2021/01/31 05:06:45;;;;;;;13.23;11.90;;;3.60;99.90;;;;;;5020828;28;20452;-87
2021/01/31 05:09:19;;;;;;;14.87;12.37;;;3.70;99.90;;;;;;5016418;28;20433;-86
2021/01/31 09:53:53;;;;;;;12.27;10.97;;;5.70;99.90;;;;;;5025715;28;20489;-89
2021/01/31 09:56:38;;;;;;;11.60;10.50;;;5.70;99.90;;;;;;5037710;28;20449;-89
2021/01/31 10:06:32;;;;;;;;;;;;;;;;;;;;;
2021/01/31 10:13:24;;;;;;;12.00;9.83;;;5.50;99.90;;;;;;5001842;28;20465;-87
2021/01/31 10:37:03;;;;;;;14.60;12.30;;;6.00;99.90;;;;;;5013133;28;20438;-86
2021/01/31 10:40:29;;;;;;;13.43;11.80;;;5.90;99.90;;;;;;5025051;28;20450;-85
2021/01/31 10:43:14;;;;;;;12.37;11.07;;;5.90;99.90;;;;;;5036560;28;20825;-86
2021/01/31 10:45:40;;;;;;;13.90;12.13;;;5.90;99.90;;;;;;5048055;22;20531;-91
2021/01/31 10:48:07;;;;;;;12.77;11.50;;;5.70;99.90;;;;;;5024332;28;20454;-91
2021/01/31 10:50:34;;;;;;;13.00;11.70;;;5.60;99.90;;;;;;5021958;28;20454;-92
2021/01/31 10:53:00;;;;;;;12.87;11.50;;;5.60;99.90;;;;;;5034068;28;20480;-93
2021/01/31 10:55:27;;;;;;;14.60;12.50;;;5.70;99.90;;;;;;5029029;28;20552;-91
2021/01/31 10:57:53;;;;;;;12.97;11.50;;;5.90;99.90;;;;;;5052425;23;20583;-86
2021/01/31 11:00:21;;;;;;;14.97;12.17;;;6.10;99.90;;;;;;5053860;28;20443;-86
2021/01/31 11:02:47;;;;;;;11.73;10.40;;;6.10;99.90;;;;;;5053985;28;20558;-86
2021/01/31 11:05:14;;;;;;;14.03;11.30;;;6.30;99.90;;;;;;5054521;28;20433;-87
2021/01/31 11:07:41;;;;;;;11.97;10.60;;;6.20;99.90;;;;;;5049757;28;20925;-86
2021/01/31 11:10:09;;;;;;;15.47;11.93;;;6.20;99.90;;;;;;5035185;28;20460;-86
2021/01/31 11:12:36;;;;;;;14.53;12.30;;;5.90;99.90;;;;;;5035920;28;20437;-86
2021/01/31 11:15:02;;;;;;;13.90;11.70;;;5.80;99.90;;;;;;5038481;28;20457;-86
2021/01/31 11:17:29;;;;;;;13.20;11.90;;;5.90;99.90;;;;;;5038919;28;20465;-86
2021/01/31 11:19:56;;;;;;;13.77;12.37;;;6.00;99.90;;;;;;5035433;28;20449;-87
2021/01/31 11:22:22;;;;;;;13.73;12.27;;;6.00;99.90;;;;;;5035611;28;20520;-87
2021/01/31 11:24:49;;;;;;;12.17;10.73;;;6.10;99.90;;;;;;5045505;28;20441;-86
2021/01/31 11:27:15;;;;;;;12.37;10.40;;;6.20;99.90;;;;;;5050987;28;20455;-86
2021/01/31 11:29:41;;;;;;;12.77;11.40;;;6.30;99.90;;;;;;5051599;28;20451;-86
2021/01/31 11:32:08;;;;;;;12.23;10.90;;;6.40;99.90;;;;;;5053874;28;20453;-86
2021/01/31 11:34:35;;;;;;;13.47;12.00;;;6.60;99.90;;;;;;5046456;28;20453;-86
2021/01/31 11:37:01;;;;;;;15.10;11.07;;;6.80;99.90;;;;;;5046274;28;20456;-87
2021/01/31 11:39:28;;;;;;;13.50;12.10;;;7.00;99.90;;;;;;5042274;28;20941;-88
2021/01/31 11:41:54;;;;;;;13.63;10.87;;;7.20;99.90;;;;;;5052937;28;20548;-87
2021/01/31 11:44:20;;;;;;;12.37;11.07;;;7.20;99.90;;;;;;5040777;28;20544;-87
2021/01/31 11:46:47;;;;;;;13.13;10.93;;;7.20;99.90;;;;;;5039603;28;20448;-85
2021/01/31 11:49:13;;;;;;;11.37;10.03;;;7.20;99.90;;;;;;5037202;28;20552;-85
2021/01/31 11:51:40;;;;;;;11.80;10.50;;;7.20;99.90;;;;;;5035649;28;20456;-87
2021/01/31 11:54:06;;;;;;;12.33;11.07;;;7.00;99.90;;;;;;5036052;28;20532;-87
2021/01/31 11:56:36;;;;;;;11.23;10.10;;;7.10;99.90;;;;;;5043350;28;20448;-86
2021/01/31 11:59:04;;;;;;;14.10;12.10;;;7.10;99.90;;;;;;5036892;28;20488;-86
2021/01/31 12:01:30;;;;;;;13.47;12.07;;;6.90;99.90;;;;;;5035894;28;20465;-86
2021/01/31 12:03:56;;;;;;;13.37;10.73;;;6.70;99.90;;;;;;5035513;28;20450;-86
2021/01/31 12:06:23;;;;;;;15.07;11.77;;;6.60;99.90;;;;;;5038799;28;20441;-86
2021/01/31 12:08:50;;;;;;;13.57;12.03;;;6.50;99.90;;;;;;5057036;28;20473;-86
2021/01/31 12:11:16;;;;;;;11.10;10.00;;;6.60;99.90;;;;;;5054602;28;20433;-86
2021/01/31 12:13:42;;;;;;;12.43;11.07;;;6.60;99.90;;;;;;5042913;28;20449;-86
2021/01/31 12:16:08;;;;;;;12.23;10.57;;;6.70;99.90;;;;;;5035394;28;20448;-86
2021/01/31 12:18:34;;;;;;;12.70;11.50;;;6.40;99.90;;;;;;5038018;28;20469;-87
2021/01/31 12:21:00;;;;;;;12.70;11.53;;;6.30;99.90;;;;;;5038593;28;20445;-86
2021/01/31 12:23:27;;;;;;;13.37;11.97;;;6.30;99.90;;;;;;5037045;28;20473;-86
2021/01/31 12:25:54;;;;;;;15.43;13.53;;;6.20;99.90;;;;;;5032543;28;20446;-86
2021/01/31 12:28:20;;;;;;;12.50;11.07;;;6.20;99.90;;;;;;5038954;28;20476;-85
2021/01/31 12:30:47;;;;;;;14.23;12.30;;;6.40;99.90;;;;;;5038764;28;20507;-87
2021/01/31 12:33:13;;;;;;;14.87;12.40;;;6.50;99.90;;;;;;5035853;28;20449;-86
2021/01/31 12:35:39;;;;;;;12.70;11.40;;;6.30;99.90;;;;;;5038490;28;20445;-86
2021/01/31 12:38:05;;;;;;;12.70;11.27;;;6.40;99.90;;;;;;5038537;28;20468;-85
2021/01/31 12:40:33;;;;;;;11.33;9.90;;;6.60;99.90;;;;;;5039050;28;20459;-87
2021/01/31 12:43:00;;;;;;;11.23;9.80;;;6.60;99.90;;;;;;5039174;28;20472;-87
2021/01/31 12:45:27;;;;;;;11.57;10.47;;;6.70;99.90;;;;;;5039278;28;20433;-86
2021/01/31 12:47:53;;;;;;;13.00;11.50;;;6.60;99.90;;;;;;5045942;28;20469;-86
2021/01/31 12:50:23;;;;;;;12.20;10.90;;;6.80;99.90;;;;;;5041530;28;20468;-86
2021/01/31 12:52:49;;;;;;;12.20;11.00;;;6.90;99.90;;;;;;5041263;28;20453;-86
2021/01/31 12:55:16;;;;;;;12.83;11.53;;;7.00;99.90;;;;;;5044355;28;20457;-84
2021/01/31 12:57:42;;;;;;;12.40;11.20;;;7.00;99.90;;;;;;5039129;28;20477;-86
2021/01/31 13:00:13;;;;;;;14.37;12.03;;;7.30;99.90;;;;;;5037662;28;20432;-87
2021/01/31 13:02:39;;;;;;;11.47;10.37;;;7.40;99.90;;;;;;5037981;28;20472;-86
2021/01/31 13:05:07;;;;;;;13.20;12.00;;;7.30;99.90;;;;;;5039079;28;20457;-86
2021/01/31 13:08:09;;;;;;;13.73;12.33;;;7.00;99.90;;;;;;5050262;23;20482;-90
2021/01/31 13:17:48;;;;;;;12.93;11.57;;;6.70;99.90;;;;;;5034817;28;20469;-91
2021/01/31 13:20:15;;;;;;;12.93;11.50;;;6.90;99.90;;;;;;5011734;23;20490;-85
2021/01/31 13:22:41;;;;;;;13.03;11.30;;;7.00;99.90;;;;;;5013995;28;20482;-85
2021/01/31 13:25:09;;;;;;;13.17;11.43;;;6.90;99.90;;;;;;5009174;28;20439;-85
2021/01/31 13:27:35;;;;;;;13.03;11.57;;;7.00;99.90;;;;;;5018302;28;20446;-86
2021/01/31 13:30:02;;;;;;;13.53;12.03;;;7.10;99.90;;;;;;5008496;28;20495;-86
2021/01/31 13:32:29;;;;;;;12.67;11.33;;;7.10;99.90;;;;;;5018831;28;20462;-85
2021/01/31 13:34:56;;;;;;;13.67;11.80;;;6.90;99.90;;;;;;5019516;28;20849;-85
2021/01/31 13:37:22;;;;;;;13.27;11.97;;;6.80;99.90;;;;;;5011773;28;20443;-85
2021/01/31 13:39:48;;;;;;;13.23;11.80;;;6.80;99.90;;;;;;5006535;28;20979;-85
2021/01/31 13:42:15;;;;;;;12.83;10.93;;;6.90;99.90;;;;;;5001907;28;20538;-86
2021/01/31 13:44:41;;;;;;;13.33;11.90;;;7.00;99.90;;;;;;5001456;28;20813;-86
2021/01/31 13:47:07;;;;;;;14.57;11.97;;;7.00;99.90;;;;;;5000799;28;20443;-85
2021/01/31 13:49:34;;;;;;;14.43;13.03;;;6.90;99.90;;;;;;5011890;28;20603;-85
2021/01/31 13:52:01;;;;;;;12.80;11.50;;;6.70;99.90;;;;;;5015896;28;20447;-85
2021/01/31 13:54:27;;;;;;;13.20;11.90;;;6.60;99.90;;;;;;5014798;28;20457;-85
2021/01/31 13:56:58;;;;;;;14.37;12.87;;;6.70;99.90;;;;;;5010228;28;20840;-87
2021/01/31 13:59:32;;;;;;;16.03;12.20;;;6.70;99.90;;;;;;5001599;28;20505;-86
2021/01/31 14:01:59;;;;;;;14.00;12.43;;;6.70;99.90;;;;;;5003480;28;20482;-88
2021/01/31 14:04:25;;;;;;;18.27;14.27;;;6.80;99.90;;;;;;5001239;28;20451;-85
2021/01/31 14:06:51;;;;;;;14.10;12.70;;;6.80;99.90;;;;;;5034194;22;20553;-86
2021/01/31 14:09:18;;;;;;;15.20;12.70;;;6.90;99.90;;;;;;5031263;28;20447;-87
2021/01/31 14:11:45;;;;;;;15.23;13.43;;;7.00;99.90;;;;;;5028473;28;20513;-86
2021/01/31 14:14:11;;;;;;;13.80;12.17;;;6.80;99.90;;;;;;5028155;28;20446;-87
2021/01/31 14:22:13;;;;;;;13.87;12.30;;;6.70;99.90;;;;;;4962652;28;20580;-92
2021/01/31 14:24:50;;;;;;;15.17;13.47;;;6.60;99.90;;;;;;5000313;28;20454;-91
2021/01/31 14:27:32;;;;;;;15.07;13.47;;;6.70;99.90;;;;;;5033065;28;20454;-91
2021/01/31 14:30:02;;;;;;;13.17;11.77;;;6.70;99.90;;;;;;5031617;28;20461;-91
2021/01/31 14:32:58;;;;;;;15.17;13.57;;;6.70;99.90;;;;;;5029625;28;20574;-91
2021/01/31 14:35:27;;;;;;;14.87;13.23;;;6.70;99.90;;;;;;5034419;22;20492;-85
2021/01/31 14:37:53;;;;;;;16.73;14.93;;;6.60;99.90;;;;;;5017439;28;21012;-86
2021/01/31 14:40:22;;;;;;;15.10;13.50;;;6.40;99.90;;;;;;5028893;28;20443;-88
2021/01/31 14:42:50;;;;;;;16.87;13.53;;;6.20;99.90;;;;;;5032493;28;20478;-85
2021/01/31 14:45:20;;;;;;;17.07;14.43;;;6.10;99.90;;;;;;5019372;28;20466;-86
2021/01/31 14:47:46;;;;;;;15.43;13.80;;;6.20;99.90;;;;;;5026731;28;20980;-86
2021/01/31 14:50:13;;;;;;;21.60;13.40;;;6.30;99.90;;;;;;5039563;28;20518;-86
2021/01/31 14:52:39;;;;;;;15.10;13.50;;;6.30;99.90;;;;;;5039664;28;20454;-85
2021/01/31 14:55:08;;;;;;;16.83;13.80;;;6.40;99.90;;;;;;5037203;28;20465;-85
2021/01/31 14:57:35;;;;;;;18.63;15.63;;;6.40;99.90;;;;;;5036891;28;20816;-86
2021/01/31 15:00:01;;;;;;;16.43;14.07;;;6.40;99.90;;;;;;5037328;28;20449;-85
2021/01/31 15:02:28;;;;;;;15.47;13.87;;;6.40;99.90;;;;;;5037061;28;20473;-85
2021/01/31 15:04:54;;;;;;;16.30;14.57;;;6.40;99.90;;;;;;5036849;28;20453;-86
2021/01/31 15:07:20;;;;;;;17.40;13.20;;;6.40;99.90;;;;;;5037709;28;20503;-86
2021/01/31 15:09:46;;;;;;;15.47;13.80;;;6.50;99.90;;;;;;5036816;28;20453;-86
2021/01/31 15:12:12;;;;;;;19.00;13.50;;;6.50;99.90;;;;;;5036449;28;20434;-85
2021/01/31 15:14:39;;;;;;;16.13;14.47;;;6.40;99.90;;;;;;5035650;28;20982;-87
2021/01/31 15:17:06;;;;;;;17.53;14.57;;;6.30;99.90;;;;;;5035535;28;20438;-87
2021/01/31 15:19:32;;;;;;;15.23;13.57;;;6.30;99.90;;;;;;5035584;28;20498;-86
2021/01/31 15:21:58;;;;;;;15.83;14.13;;;6.30;99.90;;;;;;5036222;28;20834;-86
2021/01/31 15:24:24;;;;;;;18.73;13.97;;;6.30;99.90;;;;;;5035365;28;20433;-86
2021/01/31 15:26:50;;;;;;;16.37;13.70;;;6.30;99.90;;;;;;5036113;28;20468;-86
2021/01/31 15:29:17;;;;;;;18.83;14.30;;;6.30;99.90;;;;;;5036903;28;20445;-91
2021/01/31 15:31:44;;;;;;;16.17;13.23;;;6.20;99.90;;;;;;5036088;28;20542;-86
2021/01/31 15:34:11;;;;;;;15.43;13.83;;;6.10;99.90;;;;;;5036826;28;20453;-85
2021/01/31 15:36:39;;;;;;;16.20;13.60;;;6.10;99.90;;;;;;5052896;28;20457;-85
2021/01/31 15:39:05;;;;;;;17.27;13.40;;;6.10;99.90;;;;;;5043756;28;20521;-84
2021/01/31 15:41:33;;;;;;;16.20;14.60;;;6.20;99.90;;;;;;5056791;28;20444;-86
2021/01/31 15:44:02;;;;;;;18.37;13.80;;;6.20;99.90;;;;;;5055158;28;20513;-86
2021/01/31 15:46:32;;;;;;;17.10;14.10;;;6.10;99.90;;;;;;5050108;28;20502;-85
2021/01/31 15:48:59;;;;;;;15.93;14.23;;;6.10;99.90;;;;;;5056978;28;20429;-87
2021/01/31 15:51:25;;;;;;;15.73;14.03;;;6.00;99.90;;;;;;5050534;28;20446;-86
2021/01/31 15:53:51;;;;;;;15.63;13.10;;;6.00;99.90;;;;;;5046169;28;20441;-85
2021/01/31 15:56:18;;;;;;;17.80;15.20;;;5.90;99.90;;;;;;5044079;28;20476;-87
2021/01/31 15:58:45;;;;;;;15.97;14.27;;;5.90;99.90;;;;;;5044598;28;20452;-86
2021/01/31 16:01:11;;;;;;;17.30;13.60;;;5.90;99.90;;;;;;5036926;28;20455;-86
2021/01/31 16:03:37;;;;;;;16.43;14.30;;;5.90;99.90;;;;;;5037915;28;20500;-87
2021/01/31 16:06:04;;;;;;;18.50;15.10;;;6.00;99.90;;;;;;5035234;28;20457;-87
2021/01/31 16:08:31;;;;;;;17.10;15.23;;;6.00;99.90;;;;;;5034338;28;20873;-86
2021/01/31 16:10:57;;;;;;;17.83;15.30;;;6.00;99.90;;;;;;5035187;28;20452;-86
2021/01/31 16:13:24;;;;;;;13.90;12.47;;;6.10;99.90;;;;;;5033494;28;20524;-86
2021/01/31 16:15:54;;;;;;;19.77;15.07;;;6.10;99.90;;;;;;5035737;28;20822;-86
2021/01/31 16:18:21;;;;;;;15.03;13.50;;;6.00;99.90;;;;;;5033568;28;20450;-86
2021/01/31 16:20:47;;;;;;;17.37;15.57;;;5.90;99.90;;;;;;5034424;28;20437;-86
2021/01/31 16:23:14;;;;;;;18.17;14.90;;;5.80;99.90;;;;;;5031434;28;20489;-86
2021/01/31 16:25:40;;;;;;;19.40;14.53;;;5.70;99.90;;;;;;5033249;28;21147;-86
2021/01/31 16:28:07;;;;;;;16.13;14.47;;;5.90;99.90;;;;;;5034130;28;20449;-86
2021/01/31 16:30:36;;;;;;;17.87;14.77;;;5.80;99.90;;;;;;5034406;28;20499;-85
2021/01/31 16:33:06;;;;;;;17.63;15.27;;;5.60;99.90;;;;;;5029819;28;20453;-86
2021/01/31 16:35:33;;;;;;;16.03;14.43;;;5.60;99.90;;;;;;5035194;28;20523;-85
2021/01/31 16:38:00;;;;;;;19.67;14.93;;;5.70;99.90;;;;;;5039626;28;20429;-85
2021/01/31 16:40:28;;;;;;;17.97;14.70;;;5.70;99.90;;;;;;5035001;28;20445;-85
2021/01/31 16:42:56;;;;;;;18.53;15.00;;;5.70;99.90;;;;;;5034775;28;20484;-86
2021/01/31 16:45:25;;;;;;;14.50;12.93;;;5.70;99.90;;;;;;5034849;28;20461;-85
2021/01/31 16:47:52;;;;;;;17.50;14.53;;;5.60;99.90;;;;;;5039287;28;20471;-86
2021/01/31 16:50:18;;;;;;;17.80;15.73;;;5.60;99.90;;;;;;5035376;28;20814;-86
2021/01/31 16:52:44;;;;;;;17.23;15.33;;;5.60;99.90;;;;;;5033572;28;20804;-85
2021/01/31 16:55:13;;;;;;;16.77;15.00;;;5.70;99.90;;;;;;5041654;28;20469;-86
2021/01/31 16:57:40;;;;;;;17.70;14.40;;;5.60;99.90;;;;;;5035202;28;20499;-85
2021/01/31 17:00:09;;;;;;;16.73;14.97;;;5.50;99.90;;;;;;5035821;28;20456;-86
2021/01/31 17:02:35;;;;;;;16.63;14.77;;;5.60;99.90;;;;;;5035321;28;20476;-84
2021/01/31 17:05:01;;;;;;;19.77;15.13;;;5.60;99.90;;;;;;5036550;28;20985;-86
2021/01/31 17:07:27;;;;;;;18.97;14.60;;;5.60;99.90;;;;;;5037571;28;20467;-86
2021/01/31 17:09:53;;;;;;;18.33;15.07;;;5.40;99.90;;;;;;5038986;28;20804;-85
2021/01/31 17:12:20;;;;;;;20.00;14.73;;;5.40;99.90;;;;;;5051775;28;20460;-86
2021/01/31 17:14:47;;;;;;;16.57;14.80;;;5.40;99.90;;;;;;5054223;28;20483;-86
2021/01/31 17:17:13;;;;;;;18.60;15.30;;;5.40;99.90;;;;;;5049130;28;20445;-85
2021/01/31 17:19:39;;;;;;;19.17;17.10;;;5.40;99.90;;;;;;5057132;28;20436;-87
2021/01/31 17:22:05;;;;;;;17.20;13.90;;;5.40;99.90;;;;;;5052267;28;20451;-84
2021/01/31 17:24:32;;;;;;;15.47;13.87;;;5.40;99.90;;;;;;5043272;28;20437;-85
2021/01/31 17:26:58;;;;;;;16.83;14.00;;;5.40;99.90;;;;;;5039996;28;20445;-85
2021/01/31 17:29:24;;;;;;;20.23;15.47;;;5.40;99.90;;;;;;5038047;28;20437;-85
2021/01/31 17:31:55;;;;;;;26.63;14.63;;;5.40;99.90;;;;;;5037309;28;20450;-85
2021/01/31 17:34:21;;;;;;;16.27;14.40;;;5.40;99.90;;;;;;5017992;28;20446;-86
2021/01/31 17:36:47;;;;;;;14.83;13.33;;;5.40;99.90;;;;;;5018911;28;20446;-86
2021/01/31 17:39:14;;;;;;;18.77;15.50;;;5.50;99.90;;;;;;5024957;28;20435;-86
2021/01/31 17:41:40;;;;;;;17.13;14.63;;;5.50;99.90;;;;;;5025179;28;20477;-87
2021/01/31 17:44:07;;;;;;;18.10;15.20;;;5.60;99.90;;;;;;5041273;28;20485;-85
2021/01/31 17:46:33;;;;;;;19.37;15.47;;;5.60;99.90;;;;;;5049684;28;20512;-85
2021/01/31 17:49:00;;;;;;;16.70;14.90;;;5.70;99.90;;;;;;5055923;28;20476;-86
2021/01/31 17:51:27;;;;;;;18.77;15.37;;;5.80;99.90;;;;;;5053822;28;20441;-86
2021/01/31 17:53:53;;;;;;;21.40;14.57;;;5.90;99.90;;;;;;5058675;28;20429;-86
2021/01/31 17:56:19;;;;;;;20.57;16.17;;;5.90;99.90;;;;;;5053066;28;20457;-84
2021/01/31 17:58:52;;;;;;;16.87;14.87;;;6.00;99.90;;;;;;5054490;28;20441;-86
2021/01/31 18:01:18;;;;;;;16.03;14.33;;;6.00;99.90;;;;;;5042471;28;20453;-86
2021/01/31 18:03:44;;;;;;;17.17;13.97;;;6.00;99.90;;;;;;5041820;28;20512;-85
2021/01/31 18:06:11;;;;;;;15.77;13.70;;;6.00;99.90;;;;;;5041260;28;20464;-87
2021/01/31 18:08:37;;;;;;;15.97;13.80;;;6.10;99.90;;;;;;5040620;28;20450;-86
2021/01/31 18:11:03;;;;;;;16.93;15.00;;;6.00;99.90;;;;;;5039282;28;20930;-86
2021/01/31 18:13:31;;;;;;;16.00;13.80;;;6.10;99.90;;;;;;5039349;28;20445;-86
2021/01/31 18:15:57;;;;;;;15.47;13.63;;;6.10;99.90;;;;;;5038242;28;20491;-86
2021/01/31 18:18:23;;;;;;;16.60;13.87;;;6.10;99.90;;;;;;5037456;28;20507;-86
2021/01/31 18:20:49;;;;;;;17.43;14.13;;;6.10;99.90;;;;;;5035271;28;20441;-86
2021/01/31 18:23:17;;;;;;;16.57;13.80;;;6.10;99.90;;;;;;5036853;28;20477;-86
2021/01/31 18:25:44;;;;;;;19.40;15.40;;;6.10;99.90;;;;;;5036833;28;20469;-87
2021/01/31 18:28:10;;;;;;;17.43;15.57;;;6.10;99.90;;;;;;5036994;28;20460;-87
2021/01/31 18:30:37;;;;;;;16.53;14.00;;;6.10;99.90;;;;;;5040894;28;20453;-86